KMFI/MFI METAR and TAF weather

Enter ICAO airport designator
Station Type Date Time Source
KMFI METAR 2022/07/03 13:54 UTC NOAA

KMFI 031354Z AUTO 08003KT 10SM CLR 20/15 A3016 RMK AO2 SLP209 T02000150


Station Type Date Time Source
KMFI Decoded METAR 2022/07/03 13:54 UTC NOAA

MARSHFIELD MUNICIPAL AIRPORT, WI, United States (KMFI) 44-38N 90-11W 379M
Jul 03, 2022 - 09:54 AM EDT / 2022.07.03 1354 UTC
Wind: from the E (080 degrees) at 3 MPH (3 KT):0
Visibility: 10 mile(s):0
Sky conditions: clear
Temperature: 68.0 F (20.0 C)
Dew Point: 59.0 F (15.0 C)
Relative Humidity: 72%
Pressure (altimeter): 30.16 in. Hg (1021 hPa)
ob: KMFI 031354Z AUTO 08003KT 10SM CLR 20/15 A3016 RMK AO2 SLP209 T02000150
cycle: 14

Station Type Date Time Source
KMFI TAF UTC NOAA

Error!

Example: see airport list